createdAt,value
2023-04-23T00:00:07.297Z,13.70
2023-04-23T00:02:34.514Z,13.68
2023-04-23T00:05:06.334Z,13.70
2023-04-23T00:07:34.444Z,13.66
2023-04-23T00:10:04.074Z,13.65
2023-04-23T00:12:32.023Z,13.63
2023-04-23T00:14:59.977Z,13.62
2023-04-23T00:17:26.772Z,13.60
2023-04-23T00:19:53.541Z,13.54
2023-04-23T00:22:20.625Z,13.63
2023-04-23T00:24:47.460Z,13.62
2023-04-23T00:27:14.411Z,13.61
2023-04-23T00:29:41.324Z,13.59
2023-04-23T00:32:08.475Z,13.59
2023-04-23T00:34:35.755Z,13.58
2023-04-23T00:37:06.117Z,13.56
2023-04-23T00:39:33.059Z,13.44
2023-04-23T00:42:02.821Z,13.43
2023-04-23T00:44:29.582Z,13.38
2023-04-23T00:46:56.383Z,13.46
2023-04-23T00:49:24.199Z,13.47
2023-04-23T00:51:50.909Z,13.42
2023-04-23T00:54:17.756Z,13.39
2023-04-23T00:56:44.789Z,13.31
2023-04-23T00:59:11.642Z,13.28
2023-04-23T01:01:38.448Z,13.29
2023-04-23T01:04:05.534Z,13.31
2023-04-23T01:06:33.298Z,13.25
2023-04-23T01:09:00.130Z,13.22
2023-04-23T01:11:27.202Z,13.23
2023-04-23T01:13:53.899Z,13.25
2023-04-23T01:16:20.647Z,13.20
2023-04-23T01:18:47.596Z,13.17
2023-04-23T01:21:15.220Z,13.17
2023-04-23T01:23:42.072Z,13.15
2023-04-23T01:26:10.830Z,13.15
2023-04-23T01:28:38.104Z,13.11
2023-04-23T01:31:05.112Z,13.11
2023-04-23T01:33:32.471Z,13.08
2023-04-23T01:36:00.736Z,13.07
2023-04-23T01:38:30.929Z,13.04
2023-04-23T01:40:57.698Z,13.02
2023-04-23T01:43:25.357Z,13.01
2023-04-23T01:45:53.014Z,12.98
2023-04-23T01:48:20.166Z,12.91
2023-04-23T01:50:47.064Z,12.92
2023-04-23T01:53:13.782Z,12.88
2023-04-23T01:55:43.098Z,12.82
2023-04-23T01:58:09.808Z,12.79
2023-04-23T02:00:37.030Z,12.82
2023-04-23T02:03:04.057Z,12.78
2023-04-23T02:05:34.505Z,12.78
2023-04-23T02:08:01.624Z,12.69
2023-04-23T02:10:29.639Z,12.71
2023-04-23T02:12:58.280Z,12.69
2023-04-23T02:15:25.441Z,12.67
2023-04-23T02:17:52.440Z,12.63
2023-04-23T02:20:19.778Z,12.62
2023-04-23T02:22:47.261Z,12.56
2023-04-23T02:25:18.071Z,12.52
2023-04-23T02:27:45.240Z,12.53
2023-04-23T02:30:12.540Z,12.52
2023-04-23T02:32:39.730Z,12.47
2023-04-23T02:35:06.802Z,12.45
2023-04-23T02:37:33.941Z,12.44
2023-04-23T02:40:00.758Z,12.36
2023-04-23T02:42:27.618Z,12.43
2023-04-23T02:44:54.321Z,12.43
2023-04-23T02:47:21.052Z,12.34
2023-04-23T02:49:47.818Z,12.38
2023-04-23T02:52:14.819Z,12.35
2023-04-23T02:54:41.829Z,12.35
2023-04-23T02:57:08.997Z,12.25
2023-04-23T02:59:35.831Z,12.21
2023-04-23T03:02:02.684Z,12.28
2023-04-23T03:04:29.602Z,12.22
2023-04-23T03:06:56.702Z,12.26
2023-04-23T03:09:23.478Z,12.27
2023-04-23T03:11:50.206Z,12.24
2023-04-23T03:14:16.967Z,12.21
2023-04-23T03:16:43.788Z,12.23
2023-04-23T03:19:10.824Z,12.20
2023-04-23T03:21:37.604Z,12.19
2023-04-23T03:24:04.548Z,12.12
2023-04-23T03:26:31.395Z,12.16
2023-04-23T03:28:58.150Z,12.14
2023-04-23T03:31:24.993Z,12.11
2023-04-23T03:33:51.842Z,12.15
2023-04-23T03:36:18.591Z,12.10
2023-04-23T03:38:45.362Z,12.08
2023-04-23T03:41:12.159Z,12.08
2023-04-23T03:43:38.946Z,12.07
2023-04-23T03:46:06.684Z,12.05
2023-04-23T03:48:33.530Z,12.04
2023-04-23T03:51:00.352Z,12.02
2023-04-23T03:53:27.135Z,11.99
2023-04-23T03:55:53.918Z,12.01
2023-04-23T03:58:20.635Z,12.00
2023-04-23T04:00:47.481Z,11.98
2023-04-23T04:03:14.375Z,11.96
2023-04-23T04:05:41.405Z,11.95
2023-04-23T04:08:08.650Z,11.96
2023-04-23T04:10:35.501Z,11.95
2023-04-23T04:13:02.328Z,11.94
2023-04-23T04:15:29.103Z,11.94
2023-04-23T04:17:55.881Z,11.97
2023-04-23T04:20:22.647Z,11.95
2023-04-23T04:22:49.484Z,11.92
2023-04-23T04:25:16.258Z,11.88
2023-04-23T04:27:43.797Z,11.89
2023-04-23T04:30:10.943Z,11.92
2023-04-23T04:32:38.871Z,11.92
2023-04-23T04:35:06.824Z,11.93
2023-04-23T04:37:33.867Z,11.94
2023-04-23T04:40:01.575Z,11.96
2023-04-23T04:42:28.328Z,11.95
2023-04-23T04:44:55.118Z,11.97
2023-04-23T04:47:21.870Z,11.99
2023-04-23T04:49:48.875Z,12.01
2023-04-23T04:52:15.784Z,12.03
2023-04-23T04:54:42.819Z,12.06
2023-04-23T04:57:09.876Z,12.08
2023-04-23T04:59:36.862Z,12.06
2023-04-23T05:02:03.868Z,12.07
2023-04-23T05:04:30.835Z,12.17
2023-04-23T05:06:57.628Z,12.22
2023-04-23T05:09:25.578Z,12.27
2023-04-23T05:11:52.487Z,12.24
2023-04-23T05:14:19.473Z,12.27
2023-04-23T05:16:46.281Z,12.31
2023-04-23T05:19:12.992Z,12.41
2023-04-23T05:21:39.973Z,12.50
2023-04-23T05:24:06.781Z,12.54
2023-04-23T05:26:33.735Z,12.56
2023-04-23T05:29:00.556Z,12.56
2023-04-23T05:31:29.331Z,12.68
2023-04-23T05:33:56.327Z,12.74
2023-04-23T05:36:23.078Z,12.75
2023-04-23T05:38:49.903Z,12.79
2023-04-23T05:41:16.736Z,12.90
2023-04-23T05:43:43.565Z,12.98
2023-04-23T05:46:10.516Z,13.04
2023-04-23T05:48:37.307Z,13.11
2023-04-23T05:51:04.198Z,13.17
2023-04-23T05:53:31.002Z,13.21
2023-04-23T05:55:57.906Z,13.26
2023-04-23T05:58:24.853Z,13.33
2023-04-23T06:00:53.086Z,13.38
2023-04-23T06:03:20.274Z,13.44
2023-04-23T06:05:47.339Z,13.51
2023-04-23T06:08:14.185Z,13.58
2023-04-23T06:10:40.971Z,13.65
2023-04-23T06:13:07.791Z,13.68
2023-04-23T06:15:34.526Z,13.74
2023-04-23T06:18:01.380Z,13.82
2023-04-23T06:20:28.244Z,13.89
2023-04-23T06:22:54.957Z,13.94
2023-04-23T06:25:21.696Z,13.96
2023-04-23T06:27:48.441Z,13.94
2023-04-23T06:30:15.332Z,13.99
2023-04-23T06:32:42.247Z,14.11
2023-04-23T06:35:09.499Z,14.17
2023-04-23T06:37:36.335Z,14.21
2023-04-23T06:40:03.425Z,14.25
2023-04-23T06:42:30.174Z,14.31
2023-04-23T06:44:59.286Z,14.37
2023-04-23T06:47:26.073Z,14.42
2023-04-23T06:49:52.810Z,14.47
2023-04-23T06:52:19.566Z,14.51
2023-04-23T06:54:46.521Z,14.57
2023-04-23T06:57:13.261Z,14.63
2023-04-23T06:59:40.025Z,14.68
2023-04-23T07:02:07.417Z,14.74
2023-04-23T07:04:34.371Z,14.79
2023-04-23T07:07:01.241Z,14.90
2023-04-23T07:09:28.923Z,14.96
2023-04-23T07:11:55.776Z,15.02
2023-04-23T07:14:22.630Z,15.11
2023-04-23T07:16:49.464Z,15.18
2023-04-23T07:19:16.228Z,15.22
2023-04-23T07:21:43.125Z,15.24
2023-04-23T07:24:09.874Z,15.33
2023-04-23T07:26:36.694Z,15.45
2023-04-23T07:29:05.310Z,15.52
2023-04-23T07:31:32.152Z,15.58
2023-04-23T07:33:58.946Z,15.66
2023-04-23T07:36:25.969Z,15.73
2023-04-23T07:38:52.914Z,15.83
2023-04-23T07:41:19.676Z,15.89
2023-04-23T07:43:46.684Z,15.94
2023-04-23T07:46:13.461Z,16.01
2023-04-23T07:48:40.285Z,16.06
2023-04-23T07:51:07.052Z,16.11
2023-04-23T07:53:34.502Z,16.17
2023-04-23T07:56:01.415Z,16.22
2023-04-23T07:58:28.307Z,16.26
2023-04-23T08:00:55.166Z,16.27
2023-04-23T08:03:22.772Z,16.38
2023-04-23T08:05:49.704Z,16.52
2023-04-23T08:08:16.476Z,16.60
2023-04-23T08:10:43.265Z,16.70
2023-04-23T08:13:10.194Z,16.85
2023-04-23T08:15:37.268Z,16.96
2023-04-23T08:18:04.648Z,17.05
2023-04-23T08:20:32.548Z,17.12
2023-04-23T08:22:59.581Z,17.24
2023-04-23T08:25:26.401Z,17.38
2023-04-23T08:27:53.197Z,17.41
2023-04-23T08:30:20.370Z,17.46
2023-04-23T08:32:51.148Z,17.56
2023-04-23T08:35:18.230Z,17.66
2023-04-23T08:37:45.590Z,17.72
2023-04-23T08:40:13.321Z,17.79
2023-04-23T08:42:58.881Z,17.86
2023-04-23T08:45:26.814Z,17.96
2023-04-23T08:48:00.276Z,18.03
2023-04-23T08:50:29.541Z,18.12
2023-04-23T08:52:58.072Z,18.24
2023-04-23T08:55:25.911Z,18.31
2023-04-23T08:57:52.898Z,18.36
2023-04-23T09:00:23.365Z,18.44
2023-04-23T09:02:50.810Z,18.55
2023-04-23T09:05:18.314Z,18.63
2023-04-23T09:07:45.358Z,18.71
2023-04-23T09:10:15.370Z,18.80
2023-04-23T09:12:44.041Z,18.88
2023-04-23T09:15:11.980Z,18.96
2023-04-23T09:17:46.918Z,19.02
2023-04-23T09:20:14.859Z,19.16
2023-04-23T09:22:52.728Z,19.27
2023-04-23T09:25:23.250Z,19.36
2023-04-23T09:27:52.175Z,19.42
2023-04-23T09:30:20.009Z,19.48
2023-04-23T09:32:47.495Z,19.57
2023-04-23T09:35:16.769Z,19.61
2023-04-23T09:37:48.615Z,19.65
2023-04-23T09:40:18.414Z,19.70
2023-04-23T09:42:50.092Z,19.77
2023-04-23T09:45:17.310Z,19.82
2023-04-23T09:47:55.608Z,19.84
2023-04-23T09:50:37.263Z,19.92
2023-04-23T09:53:05.306Z,20.12
2023-04-23T09:55:40.120Z,20.27
2023-04-23T09:58:11.276Z,20.32
2023-04-23T10:00:39.915Z,20.39
2023-04-23T10:03:08.976Z,20.49
2023-04-23T10:08:14.488Z,20.73
2023-04-23T10:10:55.079Z,20.75
2023-04-23T10:13:28.017Z,20.81
2023-04-23T10:15:59.059Z,20.87
2023-04-23T10:18:33.077Z,20.84
2023-04-23T10:21:02.699Z,21.02
2023-04-23T10:23:30.682Z,21.11
2023-04-23T10:26:01.201Z,21.19
2023-04-23T10:28:32.072Z,21.24
2023-04-23T10:31:00.880Z,21.38
2023-04-23T10:33:35.414Z,21.45
2023-04-23T10:36:07.581Z,21.50
2023-04-23T10:38:37.880Z,21.72
2023-04-23T10:41:10.821Z,21.83
2023-04-23T10:43:37.750Z,21.95
2023-04-23T10:46:04.540Z,21.99
2023-04-23T10:48:51.554Z,22.01
2023-04-23T10:52:05.811Z,22.03
2023-04-23T10:54:05.417Z,22.07
2023-04-23T10:56:32.330Z,22.12
2023-04-23T10:58:59.532Z,22.20
2023-04-23T11:01:30.323Z,22.28
2023-04-23T11:03:57.357Z,22.35
2023-04-23T11:06:49.010Z,22.40
2023-04-23T11:09:30.745Z,22.46
2023-04-23T11:11:58.201Z,22.68
2023-04-23T11:14:43.674Z,22.74
2023-04-23T11:17:14.691Z,22.85
2023-04-23T11:19:43.042Z,22.95
2023-04-23T11:22:13.908Z,23.13
2023-04-23T11:24:43.059Z,23.27
2023-04-23T11:27:15.677Z,23.27
2023-04-23T11:29:44.581Z,23.31
2023-04-23T11:32:14.235Z,23.39
2023-04-23T11:34:43.886Z,23.46
2023-04-23T11:37:12.323Z,23.62
2023-04-23T11:39:44.401Z,23.65
2023-04-23T11:42:13.350Z,23.69
2023-04-23T11:44:41.560Z,23.70
2023-04-23T11:47:13.110Z,23.65
2023-04-23T11:49:44.649Z,23.67
2023-04-23T11:52:12.833Z,23.70
2023-04-23T11:54:42.836Z,23.83
2023-04-23T11:57:10.526Z,23.96
2023-04-23T11:59:37.554Z,23.95
2023-04-23T12:02:04.451Z,24.03
2023-04-23T12:04:32.258Z,24.06
2023-04-23T12:06:59.465Z,24.01
2023-04-23T12:09:28.039Z,23.97
2023-04-23T12:11:56.992Z,24.01
2023-04-23T12:14:29.399Z,24.01
2023-04-23T12:16:57.137Z,23.99
2023-04-23T12:19:31.568Z,24.03
2023-04-23T12:22:01.241Z,24.12
2023-04-23T12:24:45.940Z,24.11
2023-04-23T12:27:16.044Z,24.19
2023-04-23T12:29:43.272Z,24.23
2023-04-23T12:32:13.079Z,24.26
2023-04-23T12:34:53.084Z,24.32
2023-04-23T12:37:24.524Z,24.37
2023-04-23T12:39:53.050Z,24.37
2023-04-23T12:42:19.811Z,24.39
2023-04-23T12:44:47.665Z,24.42
2023-04-23T12:47:19.682Z,24.44
2023-04-23T12:49:49.584Z,24.55
2023-04-23T12:52:16.636Z,24.56
2023-04-23T12:54:44.925Z,24.61
2023-04-23T12:57:13.036Z,24.61
2023-04-23T12:59:40.126Z,24.63
2023-04-23T13:02:07.364Z,24.67
2023-04-23T13:04:36.423Z,24.71
2023-04-23T13:07:04.368Z,24.74
2023-04-23T13:09:31.341Z,24.78
2023-04-23T13:12:00.395Z,24.87
2023-04-23T13:14:28.172Z,24.88
2023-04-23T13:16:55.077Z,24.90
2023-04-23T13:19:21.889Z,24.90
2023-04-23T13:21:48.605Z,24.93
2023-04-23T13:24:15.680Z,25.00
2023-04-23T13:26:42.603Z,25.11
2023-04-23T13:29:09.386Z,25.13
2023-04-23T13:31:36.196Z,25.05
2023-04-23T13:34:03.362Z,25.01
2023-04-23T13:36:30.312Z,25.00
2023-04-23T13:38:57.307Z,24.99
2023-04-23T13:41:24.061Z,25.04
2023-04-23T13:43:51.015Z,25.11
2023-04-23T13:46:17.922Z,25.10
2023-04-23T13:48:44.775Z,25.12
2023-04-23T13:51:26.024Z,25.15
2023-04-23T13:53:59.257Z,25.16
2023-04-23T13:56:30.425Z,25.21
2023-04-23T13:59:18.460Z,25.22
2023-04-23T14:01:49.689Z,25.20
2023-04-23T14:04:18.557Z,25.21
2023-04-23T14:06:45.491Z,25.24
2023-04-23T14:09:12.416Z,25.27
2023-04-23T14:11:40.662Z,25.25
2023-04-23T14:14:07.938Z,25.25
2023-04-23T14:16:35.595Z,25.18
2023-04-23T14:19:02.521Z,25.11
2023-04-23T14:21:29.345Z,25.07
2023-04-23T14:24:03.122Z,25.11
2023-04-23T14:29:08.668Z,25.09
2023-04-23T14:31:38.130Z,25.09
2023-04-23T14:34:06.543Z,25.08
2023-04-23T14:36:33.390Z,25.07
2023-04-23T14:39:05.296Z,25.06
2023-04-23T14:41:33.073Z,25.06
2023-04-23T14:44:01.212Z,25.05
2023-04-23T14:46:28.729Z,25.05
2023-04-23T14:48:55.777Z,25.03
2023-04-23T14:51:23.223Z,25.00
2023-04-23T14:53:51.449Z,24.97
2023-04-23T14:56:18.251Z,24.94
2023-04-23T14:58:45.404Z,24.93
2023-04-23T15:01:12.432Z,24.90
2023-04-23T15:03:39.469Z,24.91
2023-04-23T15:06:07.705Z,24.88
2023-04-23T15:08:34.548Z,24.88
2023-04-23T15:11:01.375Z,24.87
2023-04-23T15:13:50.203Z,24.85
2023-04-23T15:16:40.006Z,24.78
2023-04-23T15:19:12.557Z,24.84
2023-04-23T15:21:39.625Z,24.83
2023-04-23T15:24:07.938Z,24.82
2023-04-23T15:26:34.996Z,24.79
2023-04-23T15:29:01.896Z,24.78
2023-04-23T15:31:28.725Z,24.76
2023-04-23T15:33:56.733Z,24.74
2023-04-23T15:36:23.460Z,24.72
2023-04-23T15:38:50.211Z,24.71
2023-04-23T15:41:17.145Z,24.70
2023-04-23T15:43:43.958Z,24.70
2023-04-23T15:46:10.733Z,24.70
2023-04-23T15:48:37.558Z,24.71
2023-04-23T15:51:04.485Z,24.68
2023-04-23T15:53:31.600Z,24.70
2023-04-23T15:55:58.914Z,24.67
2023-04-23T15:58:25.732Z,24.66
2023-04-23T16:00:52.500Z,24.66
2023-04-23T16:03:19.627Z,24.62
2023-04-23T16:05:48.225Z,24.59
2023-04-23T16:08:16.390Z,24.56
2023-04-23T16:10:43.331Z,24.52
2023-04-23T16:13:10.246Z,24.47
2023-04-23T16:15:36.982Z,24.44
2023-04-23T16:18:04.142Z,24.39
2023-04-23T16:20:31.011Z,24.36
2023-04-23T16:22:57.851Z,24.31
2023-04-23T16:25:24.757Z,24.26
2023-04-23T16:27:51.758Z,24.23
2023-04-23T16:30:18.936Z,24.16
2023-04-23T16:32:46.190Z,24.12
2023-04-23T16:35:13.464Z,24.03
2023-04-23T16:37:40.923Z,23.96
2023-04-23T16:40:08.335Z,23.91
2023-04-23T16:42:35.424Z,23.85
2023-04-23T16:45:03.048Z,23.88
2023-04-23T16:47:30.412Z,23.85
2023-04-23T16:49:58.089Z,23.83
2023-04-23T16:52:24.991Z,23.75
2023-04-23T16:54:52.248Z,23.73
2023-04-23T16:57:19.405Z,23.69
2023-04-23T16:59:46.677Z,23.64
2023-04-23T17:02:13.635Z,23.60
2023-04-23T17:04:40.977Z,23.51
2023-04-23T17:07:08.397Z,23.45
2023-04-23T17:09:35.251Z,23.44
2023-04-23T17:12:02.523Z,23.42
2023-04-23T17:14:29.765Z,23.37
2023-04-23T17:16:56.836Z,23.34
2023-04-23T17:19:24.214Z,23.29
2023-04-23T17:21:51.690Z,23.22
2023-04-23T17:24:19.862Z,23.18
2023-04-23T17:26:48.049Z,23.13
2023-04-23T17:29:15.595Z,23.08
2023-04-23T17:31:43.069Z,23.03
2023-04-23T17:34:11.948Z,22.89
2023-04-23T17:36:39.153Z,22.85
2023-04-23T17:39:06.327Z,22.74
2023-04-23T17:41:34.447Z,22.74
2023-04-23T17:44:02.057Z,22.65
2023-04-23T17:46:28.949Z,22.59
2023-04-23T17:48:56.570Z,22.50
2023-04-23T17:51:23.859Z,22.39
2023-04-23T17:53:52.393Z,22.32
2023-04-23T17:56:20.369Z,22.24
2023-04-23T17:58:48.580Z,22.17
2023-04-23T18:01:18.034Z,22.10
2023-04-23T18:03:46.338Z,22.01
2023-04-23T18:06:13.731Z,21.93
2023-04-23T18:08:42.634Z,21.87
2023-04-23T18:11:10.287Z,21.84
2023-04-23T18:13:39.266Z,21.80
2023-04-23T18:16:08.005Z,21.71
2023-04-23T18:18:35.645Z,21.68
2023-04-23T18:21:02.827Z,21.64
2023-04-23T18:23:31.725Z,21.58
2023-04-23T18:26:02.012Z,21.53
2023-04-23T18:28:30.066Z,21.44
2023-04-23T18:31:02.918Z,21.41
2023-04-23T18:33:32.765Z,21.37
2023-04-23T18:36:05.787Z,21.32
2023-04-23T18:38:45.402Z,21.31
2023-04-23T18:41:12.386Z,21.23
2023-04-23T18:43:39.266Z,21.19
2023-04-23T18:46:06.885Z,21.15
2023-04-23T18:48:34.384Z,21.09
2023-04-23T18:51:13.443Z,21.06
2023-04-23T18:53:42.256Z,21.04
2023-04-23T18:56:09.419Z,20.99
2023-04-23T18:58:36.577Z,20.94
2023-04-23T19:01:03.867Z,20.91
2023-04-23T19:03:32.036Z,20.86
2023-04-23T19:05:59.808Z,20.79
2023-04-23T19:08:32.133Z,20.77
2023-04-23T19:10:59.717Z,20.73
2023-04-23T19:13:26.956Z,20.70
2023-04-23T19:15:54.647Z,20.66
2023-04-23T19:18:22.487Z,20.65
2023-04-23T19:20:50.070Z,20.59
2023-04-23T19:23:17.740Z,20.55
2023-04-23T19:25:45.408Z,20.52
2023-04-23T19:28:13.085Z,20.47
2023-04-23T19:30:40.269Z,20.44
2023-04-23T19:33:07.781Z,20.40
2023-04-23T19:35:36.378Z,20.36
2023-04-23T19:38:05.388Z,20.27
2023-04-23T19:40:32.858Z,20.19
2023-04-23T19:43:00.403Z,20.11
2023-04-23T19:45:31.891Z,20.06
2023-04-23T19:47:59.723Z,19.99
2023-04-23T19:50:27.877Z,19.92
2023-04-23T19:52:55.490Z,19.86
2023-04-23T19:55:27.550Z,19.82
2023-04-23T19:57:55.399Z,19.80
2023-04-23T20:00:24.153Z,19.79
2023-04-23T20:02:57.089Z,19.82
2023-04-23T20:05:24.270Z,19.80
2023-04-23T20:07:51.463Z,19.77
2023-04-23T20:10:18.730Z,19.74
2023-04-23T20:12:46.225Z,19.73
2023-04-23T20:15:14.282Z,19.70
2023-04-23T20:17:41.633Z,19.60
2023-04-23T20:20:10.712Z,19.63
2023-04-23T20:22:37.590Z,19.67
2023-04-23T20:25:05.359Z,19.63
2023-04-23T20:27:32.694Z,19.60
2023-04-23T20:29:59.957Z,19.59
2023-04-23T20:32:26.895Z,19.50
2023-04-23T20:34:54.156Z,19.47
2023-04-23T20:37:22.049Z,19.53
2023-04-23T20:39:49.965Z,19.51
2023-04-23T20:42:17.169Z,19.47
2023-04-23T20:44:45.519Z,19.45
2023-04-23T20:47:12.897Z,19.44
2023-04-23T20:49:40.442Z,19.42
2023-04-23T20:52:07.555Z,19.41
2023-04-23T20:54:34.984Z,19.37
2023-04-23T20:57:02.998Z,19.31
2023-04-23T20:59:29.806Z,19.27
2023-04-23T21:01:56.678Z,19.30
2023-04-23T21:04:23.777Z,19.28
2023-04-23T21:06:51.182Z,19.27
2023-04-23T21:09:18.039Z,19.23
2023-04-23T21:11:44.870Z,19.19
2023-04-23T21:14:11.640Z,19.17
2023-04-23T21:16:38.489Z,19.15
2023-04-23T21:19:05.832Z,19.13
2023-04-23T21:21:33.073Z,19.08
2023-04-23T21:24:00.862Z,19.04
2023-04-23T21:26:29.628Z,19.01
2023-04-23T21:28:56.850Z,18.91
2023-04-23T21:31:43.130Z,18.84
2023-04-23T21:34:09.958Z,18.84
2023-04-23T21:36:36.727Z,18.81
2023-04-23T21:39:04.136Z,18.76
2023-04-23T21:41:31.147Z,18.71
2023-04-23T21:43:57.953Z,18.66
2023-04-23T21:46:25.158Z,18.62
2023-04-23T21:48:53.765Z,18.60
2023-04-23T21:51:22.437Z,18.58
2023-04-23T21:53:49.338Z,18.57
2023-04-23T21:56:16.445Z,18.55
2023-04-23T21:58:46.257Z,18.50
2023-04-23T22:01:13.011Z,18.50
2023-04-23T22:03:43.475Z,18.47
2023-04-23T22:06:10.270Z,18.46
2023-04-23T22:08:40.509Z,18.41
2023-04-23T22:11:08.325Z,18.40
2023-04-23T22:13:36.069Z,18.36
2023-04-23T22:16:06.534Z,18.34
2023-04-23T22:18:38.361Z,18.31
2023-04-23T22:21:05.294Z,18.26
2023-04-23T22:23:32.260Z,18.25
2023-04-23T22:25:59.239Z,18.25
2023-04-23T22:28:26.030Z,18.24
2023-04-23T22:30:53.460Z,18.23
2023-04-23T22:33:21.021Z,18.20
2023-04-23T22:35:47.788Z,18.20
2023-04-23T22:38:14.575Z,18.19
2023-04-23T22:40:41.383Z,18.16
2023-04-23T22:43:08.160Z,18.13
2023-04-23T22:45:35.053Z,18.10
2023-04-23T22:48:01.895Z,18.09
2023-04-23T22:50:30.546Z,18.05
2023-04-23T22:52:57.563Z,18.05
2023-04-23T22:55:24.381Z,18.02
2023-04-23T22:57:51.158Z,17.98
2023-04-23T23:00:17.962Z,17.98
2023-04-23T23:02:44.788Z,17.97
2023-04-23T23:05:11.542Z,17.92
2023-04-23T23:07:38.640Z,17.88
2023-04-23T23:10:08.840Z,17.86
2023-04-23T23:12:36.543Z,17.82
2023-04-23T23:15:03.792Z,17.82
2023-04-23T23:17:30.548Z,17.78
2023-04-23T23:19:57.334Z,17.74
2023-04-23T23:22:24.123Z,17.73
2023-04-23T23:24:50.883Z,17.71
2023-04-23T23:27:17.592Z,17.71
2023-04-23T23:29:44.529Z,17.67
2023-04-23T23:32:11.465Z,17.64
2023-04-23T23:34:38.273Z,17.63
2023-04-23T23:37:05.085Z,17.59
2023-04-23T23:39:31.858Z,17.56
2023-04-23T23:41:59.857Z,17.54
2023-04-23T23:44:26.761Z,17.49
2023-04-23T23:46:53.610Z,17.48
2023-04-23T23:49:20.824Z,17.44
2023-04-23T23:51:47.721Z,17.40
2023-04-23T23:54:14.675Z,17.38
2023-04-23T23:56:41.618Z,17.37
2023-04-23T23:59:08.450Z,17.35
